sensor_id;sensor_type;location;lat;lon;timestamp;temperature;humidity
3564;DHT22;1796;52.388;13.096;2022-08-05T00:02:11;23.90;99.90
3564;DHT22;1796;52.388;13.096;2022-08-05T00:04:38;23.90;99.90
3564;DHT22;1796;52.388;13.096;2022-08-05T00:07:07;23.80;99.90
3564;DHT22;1796;52.388;13.096;2022-08-05T00:09:34;23.70;99.90
3564;DHT22;1796;52.388;13.096;2022-08-05T00:12:00;23.60;99.90
3564;DHT22;1796;52.388;13.096;2022-08-05T00:14:27;23.60;99.90
3564;DHT22;1796;52.388;13.096;2022-08-05T00:16:54;23.50;99.90
3564;DHT22;1796;52.388;13.096;2022-08-05T00:19:22;23.40;99.90
3564;DHT22;1796;52.388;13.096;2022-08-05T00:21:49;23.40;99.90
3564;DHT22;1796;52.388;13.096;2022-08-05T00:24:17;23.40;99.90
3564;DHT22;1796;52.388;13.096;2022-08-05T00:26:44;23.40;99.90
3564;DHT22;1796;52.388;13.096;2022-08-05T00:29:11;23.40;99.90
3564;DHT22;1796;52.388;13.096;2022-08-05T00:31:38;23.50;99.90
3564;DHT22;1796;52.388;13.096;2022-08-05T00:34:04;23.50;99.90
3564;DHT22;1796;52.388;13.096;2022-08-05T00:36:31;23.50;99.90
3564;DHT22;1796;52.388;13.096;2022-08-05T00:38:58;23.50;99.90
3564;DHT22;1796;52.388;13.096;2022-08-05T00:41:31;23.40;99.90
3564;DHT22;1796;52.388;13.096;2022-08-05T00:44:00;23.40;99.90
3564;DHT22;1796;52.388;13.096;2022-08-05T00:46:27;23.30;99.90
3564;DHT22;1796;52.388;13.096;2022-08-05T00:48:54;23.20;99.90
3564;DHT22;1796;52.388;13.096;2022-08-05T00:51:21;23.20;99.90
3564;DHT22;1796;52.388;13.096;2022-08-05T00:53:48;23.10;99.90
3564;DHT22;1796;52.388;13.096;2022-08-05T00:56:16;23.10;99.90
3564;DHT22;1796;52.388;13.096;2022-08-05T00:58:44;23.10;99.90
3564;DHT22;1796;52.388;13.096;2022-08-05T01:01:12;23.10;99.90
3564;DHT22;1796;52.388;13.096;2022-08-05T01:03:40;23.10;99.90
3564;DHT22;1796;52.388;13.096;2022-08-05T01:06:08;23.10;99.90
3564;DHT22;1796;52.388;13.096;2022-08-05T01:08:35;23.00;99.90
3564;DHT22;1796;52.388;13.096;2022-08-05T01:11:05;23.00;99.90
3564;DHT22;1796;52.388;13.096;2022-08-05T01:13:40;23.00;99.90
3564;DHT22;1796;52.388;13.096;2022-08-05T01:16:15;22.90;99.90
3564;DHT22;1796;52.388;13.096;2022-08-05T01:18:48;22.90;99.90
3564;DHT22;1796;52.388;13.096;2022-08-05T01:21:36;22.80;99.90
3564;DHT22;1796;52.388;13.096;2022-08-05T01:24:13;22.80;99.90
3564;DHT22;1796;52.388;13.096;2022-08-05T01:26:55;22.70;99.90
3564;DHT22;1796;52.388;13.096;2022-08-05T01:29:30;22.60;99.90
3564;DHT22;1796;52.388;13.096;2022-08-05T01:32:01;22.60;99.90
3564;DHT22;1796;52.388;13.096;2022-08-05T01:34:31;22.50;99.90
3564;DHT22;1796;52.388;13.096;2022-08-05T01:37:03;22.50;99.90
3564;DHT22;1796;52.388;13.096;2022-08-05T01:39:33;22.50;99.90
3564;DHT22;1796;52.388;13.096;2022-08-05T01:42:01;22.50;99.90
3564;DHT22;1796;52.388;13.096;2022-08-05T01:44:31;22.40;99.90
3564;DHT22;1796;52.388;13.096;2022-08-05T01:46:59;22.30;99.90
3564;DHT22;1796;52.388;13.096;2022-08-05T01:49:29;22.30;99.90
3564;DHT22;1796;52.388;13.096;2022-08-05T01:52:00;22.40;99.90
3564;DHT22;1796;52.388;13.096;2022-08-05T01:54:40;22.40;99.90
3564;DHT22;1796;52.388;13.096;2022-08-05T01:57:09;22.30;99.90
3564;DHT22;1796;52.388;13.096;2022-08-05T01:59:38;22.30;99.90
3564;DHT22;1796;52.388;13.096;2022-08-05T02:02:08;22.30;99.90
3564;DHT22;1796;52.388;13.096;2022-08-05T02:04:39;22.20;99.90
3564;DHT22;1796;52.388;13.096;2022-08-05T02:07:08;22.20;99.90
3564;DHT22;1796;52.388;13.096;2022-08-05T02:09:35;22.20;99.90
3564;DHT22;1796;52.388;13.096;2022-08-05T02:12:07;22.10;99.90
3564;DHT22;1796;52.388;13.096;2022-08-05T02:14:41;22.10;99.90
3564;DHT22;1796;52.388;13.096;2022-08-05T02:17:11;22.10;99.90
3564;DHT22;1796;52.388;13.096;2022-08-05T02:19:43;22.10;99.90
3564;DHT22;1796;52.388;13.096;2022-08-05T02:22:15;22.10;99.90
3564;DHT22;1796;52.388;13.096;2022-08-05T02:24:57;22.10;99.90
3564;DHT22;1796;52.388;13.096;2022-08-05T02:27:27;22.10;99.90
3564;DHT22;1796;52.388;13.096;2022-08-05T02:30:00;22.00;99.90
3564;DHT22;1796;52.388;13.096;2022-08-05T02:32:28;22.00;99.90
3564;DHT22;1796;52.388;13.096;2022-08-05T02:34:58;22.00;99.90
3564;DHT22;1796;52.388;13.096;2022-08-05T02:37:26;22.00;99.90
3564;DHT22;1796;52.388;13.096;2022-08-05T02:39:54;22.00;99.90
3564;DHT22;1796;52.388;13.096;2022-08-05T02:42:22;22.10;99.90
3564;DHT22;1796;52.388;13.096;2022-08-05T02:44:49;22.00;99.90
3564;DHT22;1796;52.388;13.096;2022-08-05T02:47:19;22.00;99.90
3564;DHT22;1796;52.388;13.096;2022-08-05T02:49:47;21.90;99.90
3564;DHT22;1796;52.388;13.096;2022-08-05T02:52:17;22.00;99.90
3564;DHT22;1796;52.388;13.096;2022-08-05T02:54:45;22.00;99.90
3564;DHT22;1796;52.388;13.096;2022-08-05T02:57:16;21.90;99.90
3564;DHT22;1796;52.388;13.096;2022-08-05T02:59:45;21.90;99.90
3564;DHT22;1796;52.388;13.096;2022-08-05T03:02:16;21.90;99.90
3564;DHT22;1796;52.388;13.096;2022-08-05T03:04:45;21.90;99.90
3564;DHT22;1796;52.388;13.096;2022-08-05T03:07:12;21.90;99.90
3564;DHT22;1796;52.388;13.096;2022-08-05T03:09:41;21.90;99.90
3564;DHT22;1796;52.388;13.096;2022-08-05T03:12:09;21.90;99.90
3564;DHT22;1796;52.388;13.096;2022-08-05T03:14:36;21.90;99.90
3564;DHT22;1796;52.388;13.096;2022-08-05T03:17:03;21.90;99.90
3564;DHT22;1796;52.388;13.096;2022-08-05T03:19:30;21.90;99.90
3564;DHT22;1796;52.388;13.096;2022-08-05T03:21:58;21.90;99.90
3564;DHT22;1796;52.388;13.096;2022-08-05T03:24:25;21.90;99.90
3564;DHT22;1796;52.388;13.096;2022-08-05T03:26:53;21.90;99.90
3564;DHT22;1796;52.388;13.096;2022-08-05T03:29:20;22.00;99.90
3564;DHT22;1796;52.388;13.096;2022-08-05T03:31:47;22.10;99.90
3564;DHT22;1796;52.388;13.096;2022-08-05T03:34:15;22.10;99.90
3564;DHT22;1796;52.388;13.096;2022-08-05T03:36:42;22.00;99.90
3564;DHT22;1796;52.388;13.096;2022-08-05T03:39:10;22.00;99.90
3564;DHT22;1796;52.388;13.096;2022-08-05T03:41:37;22.00;99.90
3564;DHT22;1796;52.388;13.096;2022-08-05T03:44:04;22.00;99.90
3564;DHT22;1796;52.388;13.096;2022-08-05T03:46:31;22.00;99.90
3564;DHT22;1796;52.388;13.096;2022-08-05T03:48:58;22.00;99.90
3564;DHT22;1796;52.388;13.096;2022-08-05T03:51:29;22.00;99.90
3564;DHT22;1796;52.388;13.096;2022-08-05T03:53:59;22.10;99.90
3564;DHT22;1796;52.388;13.096;2022-08-05T03:56:30;22.10;99.90
3564;DHT22;1796;52.388;13.096;2022-08-05T03:59:01;22.20;99.90
3564;DHT22;1796;52.388;13.096;2022-08-05T04:01:29;22.20;99.90
3564;DHT22;1796;52.388;13.096;2022-08-05T04:03:57;22.20;99.90
3564;DHT22;1796;52.388;13.096;2022-08-05T04:06:25;22.30;99.90
3564;DHT22;1796;52.388;13.096;2022-08-05T04:08:53;22.30;99.90
3564;DHT22;1796;52.388;13.096;2022-08-05T04:11:20;22.40;99.90
3564;DHT22;1796;52.388;13.096;2022-08-05T04:13:49;22.50;99.90
3564;DHT22;1796;52.388;13.096;2022-08-05T04:16:16;22.60;99.90
3564;DHT22;1796;52.388;13.096;2022-08-05T04:18:44;22.70;99.90
3564;DHT22;1796;52.388;13.096;2022-08-05T04:21:11;22.90;99.90
3564;DHT22;1796;52.388;13.096;2022-08-05T04:23:38;23.00;99.90
3564;DHT22;1796;52.388;13.096;2022-08-05T04:26:05;23.20;99.90
3564;DHT22;1796;52.388;13.096;2022-08-05T04:28:32;23.50;99.90
3564;DHT22;1796;52.388;13.096;2022-08-05T04:31:00;23.70;99.90
3564;DHT22;1796;52.388;13.096;2022-08-05T04:33:28;23.90;99.90
3564;DHT22;1796;52.388;13.096;2022-08-05T04:35:55;24.20;99.90
3564;DHT22;1796;52.388;13.096;2022-08-05T04:38:22;24.70;99.90
3564;DHT22;1796;52.388;13.096;2022-08-05T04:40:49;24.90;99.90
3564;DHT22;1796;52.388;13.096;2022-08-05T04:43:16;25.00;99.90
3564;DHT22;1796;52.388;13.096;2022-08-05T04:45:44;25.10;99.90
3564;DHT22;1796;52.388;13.096;2022-08-05T04:48:13;25.40;99.90
3564;DHT22;1796;52.388;13.096;2022-08-05T04:50:41;25.70;99.90
3564;DHT22;1796;52.388;13.096;2022-08-05T04:53:09;26.00;99.90
3564;DHT22;1796;52.388;13.096;2022-08-05T04:55:36;26.10;99.90
3564;DHT22;1796;52.388;13.096;2022-08-05T04:58:03;26.10;99.90
3564;DHT22;1796;52.388;13.096;2022-08-05T05:00:31;26.10;99.90
3564;DHT22;1796;52.388;13.096;2022-08-05T05:02:58;26.10;99.90
3564;DHT22;1796;52.388;13.096;2022-08-05T05:05:27;26.00;99.90
3564;DHT22;1796;52.388;13.096;2022-08-05T05:07:58;25.80;99.90
3564;DHT22;1796;52.388;13.096;2022-08-05T05:10:25;25.60;99.90
3564;DHT22;1796;52.388;13.096;2022-08-05T05:12:52;25.50;99.90
3564;DHT22;1796;52.388;13.096;2022-08-05T05:15:19;25.20;99.90
3564;DHT22;1796;52.388;13.096;2022-08-05T05:17:46;24.80;99.90
3564;DHT22;1796;52.388;13.096;2022-08-05T05:22:50;24.60;99.90
3564;DHT22;1796;52.388;13.096;2022-08-05T05:25:17;24.60;99.90
3564;DHT22;1796;52.388;13.096;2022-08-05T05:27:44;24.60;99.90
3564;DHT22;1796;52.388;13.096;2022-08-05T05:30:12;24.70;99.90
3564;DHT22;1796;52.388;13.096;2022-08-05T05:32:39;24.70;99.90
3564;DHT22;1796;52.388;13.096;2022-08-05T05:35:06;24.70;99.90
3564;DHT22;1796;52.388;13.096;2022-08-05T05:37:33;24.70;99.90
3564;DHT22;1796;52.388;13.096;2022-08-05T05:40:02;24.60;99.90
3564;DHT22;1796;52.388;13.096;2022-08-05T05:42:29;24.40;99.90
3564;DHT22;1796;52.388;13.096;2022-08-05T05:44:56;24.20;99.90
3564;DHT22;1796;52.388;13.096;2022-08-05T05:47:23;24.20;99.90
3564;DHT22;1796;52.388;13.096;2022-08-05T05:49:50;24.10;99.90
3564;DHT22;1796;52.388;13.096;2022-08-05T05:52:16;24.00;99.90
3564;DHT22;1796;52.388;13.096;2022-08-05T05:54:43;24.00;99.90
3564;DHT22;1796;52.388;13.096;2022-08-05T05:57:12;23.90;99.90
3564;DHT22;1796;52.388;13.096;2022-08-05T05:59:39;23.80;99.90
3564;DHT22;1796;52.388;13.096;2022-08-05T06:02:06;23.90;99.90
3564;DHT22;1796;52.388;13.096;2022-08-05T06:04:33;23.90;99.90
3564;DHT22;1796;52.388;13.096;2022-08-05T06:06:59;23.90;99.90
3564;DHT22;1796;52.388;13.096;2022-08-05T06:09:26;23.90;99.90
3564;DHT22;1796;52.388;13.096;2022-08-05T06:11:54;23.90;99.90
3564;DHT22;1796;52.388;13.096;2022-08-05T06:14:22;23.90;99.90
3564;DHT22;1796;52.388;13.096;2022-08-05T06:16:49;23.80;99.90
3564;DHT22;1796;52.388;13.096;2022-08-05T06:19:16;23.80;99.90
3564;DHT22;1796;52.388;13.096;2022-08-05T06:21:43;24.00;99.90
3564;DHT22;1796;52.388;13.096;2022-08-05T06:24:10;24.60;99.90
3564;DHT22;1796;52.388;13.096;2022-08-05T06:26:37;24.70;99.90
3564;DHT22;1796;52.388;13.096;2022-08-05T06:29:04;24.50;99.90
3564;DHT22;1796;52.388;13.096;2022-08-05T06:31:33;24.20;99.90
3564;DHT22;1796;52.388;13.096;2022-08-05T06:34:00;24.20;99.90
3564;DHT22;1796;52.388;13.096;2022-08-05T06:36:27;24.20;99.90
3564;DHT22;1796;52.388;13.096;2022-08-05T06:38:54;24.30;99.90
3564;DHT22;1796;52.388;13.096;2022-08-05T06:41:21;24.20;99.90
3564;DHT22;1796;52.388;13.096;2022-08-05T06:43:48;24.60;99.90
3564;DHT22;1796;52.388;13.096;2022-08-05T06:46:15;24.70;99.90
3564;DHT22;1796;52.388;13.096;2022-08-05T06:48:44;24.80;99.90
3564;DHT22;1796;52.388;13.096;2022-08-05T06:51:11;24.80;99.90
3564;DHT22;1796;52.388;13.096;2022-08-05T06:53:38;24.90;99.90
3564;DHT22;1796;52.388;13.096;2022-08-05T06:56:05;24.80;99.90
3564;DHT22;1796;52.388;13.096;2022-08-05T06:58:32;24.60;99.90
3564;DHT22;1796;52.388;13.096;2022-08-05T07:00:59;24.60;99.90
3564;DHT22;1796;52.388;13.096;2022-08-05T07:03:27;24.60;99.90
3564;DHT22;1796;52.388;13.096;2022-08-05T07:05:56;24.50;99.90
3564;DHT22;1796;52.388;13.096;2022-08-05T07:08:23;24.40;99.90
3564;DHT22;1796;52.388;13.096;2022-08-05T07:10:50;24.10;99.90
3564;DHT22;1796;52.388;13.096;2022-08-05T07:13:17;23.90;99.90
3564;DHT22;1796;52.388;13.096;2022-08-05T07:16:02;23.90;99.90
3564;DHT22;1796;52.388;13.096;2022-08-05T07:18:46;23.80;99.90
3564;DHT22;1796;52.388;13.096;2022-08-05T07:21:14;23.50;99.90
3564;DHT22;1796;52.388;13.096;2022-08-05T07:23:41;23.50;99.90
3564;DHT22;1796;52.388;13.096;2022-08-05T07:26:08;23.40;99.90
3564;DHT22;1796;52.388;13.096;2022-08-05T07:28:35;23.20;99.90
3564;DHT22;1796;52.388;13.096;2022-08-05T07:31:02;23.20;99.90
3564;DHT22;1796;52.388;13.096;2022-08-05T07:33:29;23.10;99.90
3564;DHT22;1796;52.388;13.096;2022-08-05T07:35:55;23.20;99.90
3564;DHT22;1796;52.388;13.096;2022-08-05T07:38:24;23.20;99.90
3564;DHT22;1796;52.388;13.096;2022-08-05T07:40:51;23.20;99.90
3564;DHT22;1796;52.388;13.096;2022-08-05T07:43:18;23.00;99.90
3564;DHT22;1796;52.388;13.096;2022-08-05T07:45:45;22.90;99.90
3564;DHT22;1796;52.388;13.096;2022-08-05T07:48:12;22.80;99.90
3564;DHT22;1796;52.388;13.096;2022-08-05T07:50:39;22.50;99.90
3564;DHT22;1796;52.388;13.096;2022-08-05T07:53:06;22.20;99.90
3564;DHT22;1796;52.388;13.096;2022-08-05T07:55:35;22.20;99.90
3564;DHT22;1796;52.388;13.096;2022-08-05T07:58:01;22.40;99.90
3564;DHT22;1796;52.388;13.096;2022-08-05T08:00:28;22.60;99.90
3564;DHT22;1796;52.388;13.096;2022-08-05T08:02:55;22.40;99.90
3564;DHT22;1796;52.388;13.096;2022-08-05T08:05:22;22.40;99.90
3564;DHT22;1796;52.388;13.096;2022-08-05T08:07:51;22.30;99.90
3564;DHT22;1796;52.388;13.096;2022-08-05T08:10:20;22.50;99.90
3564;DHT22;1796;52.388;13.096;2022-08-05T08:12:48;22.80;99.90
3564;DHT22;1796;52.388;13.096;2022-08-05T08:15:15;23.10;99.90
3564;DHT22;1796;52.388;13.096;2022-08-05T08:17:43;23.60;99.90
3564;DHT22;1796;52.388;13.096;2022-08-05T08:20:10;23.80;99.90
3564;DHT22;1796;52.388;13.096;2022-08-05T08:22:37;24.10;99.90
3564;DHT22;1796;52.388;13.096;2022-08-05T08:25:05;24.10;99.90
3564;DHT22;1796;52.388;13.096;2022-08-05T08:27:32;24.00;99.90
3564;DHT22;1796;52.388;13.096;2022-08-05T08:30:00;23.90;99.90
3564;DHT22;1796;52.388;13.096;2022-08-05T08:32:27;23.80;99.90
3564;DHT22;1796;52.388;13.096;2022-08-05T08:34:55;23.60;99.90
3564;DHT22;1796;52.388;13.096;2022-08-05T08:37:22;23.60;99.90
3564;DHT22;1796;52.388;13.096;2022-08-05T08:39:49;23.60;99.90
3564;DHT22;1796;52.388;13.096;2022-08-05T08:42:15;23.60;99.90
3564;DHT22;1796;52.388;13.096;2022-08-05T08:44:43;23.70;99.90
3564;DHT22;1796;52.388;13.096;2022-08-05T08:47:13;23.70;99.90
3564;DHT22;1796;52.388;13.096;2022-08-05T08:49:44;23.80;99.90
3564;DHT22;1796;52.388;13.096;2022-08-05T08:52:13;24.00;99.90
3564;DHT22;1796;52.388;13.096;2022-08-05T08:54:43;24.10;99.90
3564;DHT22;1796;52.388;13.096;2022-08-05T08:57:12;24.20;99.90
3564;DHT22;1796;52.388;13.096;2022-08-05T08:59:39;24.30;99.90
3564;DHT22;1796;52.388;13.096;2022-08-05T09:02:06;24.20;99.90
3564;DHT22;1796;52.388;13.096;2022-08-05T09:04:36;23.90;99.90
3564;DHT22;1796;52.388;13.096;2022-08-05T09:07:04;23.80;99.90
3564;DHT22;1796;52.388;13.096;2022-08-05T09:09:32;23.90;99.90
3564;DHT22;1796;52.388;13.096;2022-08-05T09:11:59;24.20;99.90
3564;DHT22;1796;52.388;13.096;2022-08-05T09:14:26;24.40;99.90
3564;DHT22;1796;52.388;13.096;2022-08-05T09:16:54;24.40;99.90
3564;DHT22;1796;52.388;13.096;2022-08-05T09:19:20;24.60;99.90
3564;DHT22;1796;52.388;13.096;2022-08-05T09:21:49;24.60;99.90
3564;DHT22;1796;52.388;13.096;2022-08-05T09:24:16;24.60;99.90
3564;DHT22;1796;52.388;13.096;2022-08-05T09:26:46;24.70;99.90
3564;DHT22;1796;52.388;13.096;2022-08-05T09:29:13;24.90;99.90
3564;DHT22;1796;52.388;13.096;2022-08-05T09:31:40;25.00;99.90
3564;DHT22;1796;52.388;13.096;2022-08-05T09:34:09;24.40;99.90
3564;DHT22;1796;52.388;13.096;2022-08-05T09:36:39;24.30;99.90
3564;DHT22;1796;52.388;13.096;2022-08-05T09:39:10;24.30;99.90
3564;DHT22;1796;52.388;13.096;2022-08-05T09:41:55;24.20;99.90
3564;DHT22;1796;52.388;13.096;2022-08-05T09:44:36;24.10;99.90
3564;DHT22;1796;52.388;13.096;2022-08-05T09:47:06;23.20;99.90
3564;DHT22;1796;52.388;13.096;2022-08-05T09:49:34;22.60;99.90
3564;DHT22;1796;52.388;13.096;2022-08-05T09:52:22;22.30;99.90
3564;DHT22;1796;52.388;13.096;2022-08-05T09:54:59;22.30;99.90
3564;DHT22;1796;52.388;13.096;2022-08-05T09:57:30;22.30;99.90
3564;DHT22;1796;52.388;13.096;2022-08-05T09:59:58;22.20;99.90
3564;DHT22;1796;52.388;13.096;2022-08-05T10:02:33;22.20;99.90
3564;DHT22;1796;52.388;13.096;2022-08-05T10:05:05;22.60;99.90
3564;DHT22;1796;52.388;13.096;2022-08-05T10:07:48;23.00;99.90
3564;DHT22;1796;52.388;13.096;2022-08-05T10:10:19;23.40;99.90
3564;DHT22;1796;52.388;13.096;2022-08-05T10:12:47;23.50;99.90
3564;DHT22;1796;52.388;13.096;2022-08-05T10:15:19;23.60;99.90
3564;DHT22;1796;52.388;13.096;2022-08-05T10:18:17;23.70;99.90
3564;DHT22;1796;52.388;13.096;2022-08-05T10:20:49;23.60;99.90
3564;DHT22;1796;52.388;13.096;2022-08-05T10:23:19;23.40;99.90
3564;DHT22;1796;52.388;13.096;2022-08-05T10:25:48;23.20;99.90
3564;DHT22;1796;52.388;13.096;2022-08-05T10:28:15;23.00;99.90
3564;DHT22;1796;52.388;13.096;2022-08-05T10:30:43;23.10;99.90
3564;DHT22;1796;52.388;13.096;2022-08-05T10:33:10;23.30;99.90
3564;DHT22;1796;52.388;13.096;2022-08-05T10:35:38;23.50;99.90
3564;DHT22;1796;52.388;13.096;2022-08-05T10:38:05;23.60;99.90
3564;DHT22;1796;52.388;13.096;2022-08-05T10:40:36;23.80;99.90
3564;DHT22;1796;52.388;13.096;2022-08-05T10:43:14;23.90;99.90
3564;DHT22;1796;52.388;13.096;2022-08-05T10:45:54;24.00;99.90
3564;DHT22;1796;52.388;13.096;2022-08-05T10:48:30;23.90;99.90
3564;DHT22;1796;52.388;13.096;2022-08-05T10:50:59;23.90;99.90
3564;DHT22;1796;52.388;13.096;2022-08-05T10:53:36;24.00;99.90
3564;DHT22;1796;52.388;13.096;2022-08-05T10:56:04;23.90;99.90
3564;DHT22;1796;52.388;13.096;2022-08-05T10:58:34;24.00;99.90
3564;DHT22;1796;52.388;13.096;2022-08-05T11:01:04;24.30;99.90
3564;DHT22;1796;52.388;13.096;2022-08-05T11:03:32;24.50;99.90
3564;DHT22;1796;52.388;13.096;2022-08-05T11:06:08;24.80;99.90
3564;DHT22;1796;52.388;13.096;2022-08-05T11:08:35;25.10;99.90
3564;DHT22;1796;52.388;13.096;2022-08-05T11:11:33;25.20;99.90
3564;DHT22;1796;52.388;13.096;2022-08-05T11:14:02;25.30;99.90
3564;DHT22;1796;52.388;13.096;2022-08-05T11:16:30;25.40;99.90
3564;DHT22;1796;52.388;13.096;2022-08-05T11:19:25;25.50;99.90
3564;DHT22;1796;52.388;13.096;2022-08-05T11:21:53;25.80;99.90
3564;DHT22;1796;52.388;13.096;2022-08-05T11:24:21;25.90;99.90
3564;DHT22;1796;52.388;13.096;2022-08-05T11:26:49;26.10;99.90
3564;DHT22;1796;52.388;13.096;2022-08-05T11:29:38;26.20;99.90
3564;DHT22;1796;52.388;13.096;2022-08-05T11:32:26;26.30;99.90
3564;DHT22;1796;52.388;13.096;2022-08-05T11:34:54;26.50;99.90
3564;DHT22;1796;52.388;13.096;2022-08-05T11:40:56;26.70;99.90
3564;DHT22;1796;52.388;13.096;2022-08-05T11:43:24;26.80;99.90
3564;DHT22;1796;52.388;13.096;2022-08-05T11:45:53;27.00;99.90
3564;DHT22;1796;52.388;13.096;2022-08-05T11:48:20;27.20;99.90
3564;DHT22;1796;52.388;13.096;2022-08-05T11:50:48;27.30;99.90
3564;DHT22;1796;52.388;13.096;2022-08-05T11:53:15;27.50;99.90
3564;DHT22;1796;52.388;13.096;2022-08-05T11:55:53;27.60;99.90
3564;DHT22;1796;52.388;13.096;2022-08-05T11:58:30;27.70;99.90
3564;DHT22;1796;52.388;13.096;2022-08-05T12:01:05;27.50;99.90
3564;DHT22;1796;52.388;13.096;2022-08-05T12:03:43;27.50;99.90
3564;DHT22;1796;52.388;13.096;2022-08-05T12:06:11;27.60;99.90
3564;DHT22;1796;52.388;13.096;2022-08-05T12:08:42;27.70;99.90
3564;DHT22;1796;52.388;13.096;2022-08-05T12:11:10;27.80;99.90
3564;DHT22;1796;52.388;13.096;2022-08-05T12:13:37;28.00;99.90
3564;DHT22;1796;52.388;13.096;2022-08-05T12:16:07;28.20;99.90
3564;DHT22;1796;52.388;13.096;2022-08-05T12:18:34;28.30;99.90
3564;DHT22;1796;52.388;13.096;2022-08-05T12:21:09;28.20;99.90
3564;DHT22;1796;52.388;13.096;2022-08-05T12:23:36;28.40;99.90
3564;DHT22;1796;52.388;13.096;2022-08-05T12:26:03;28.60;99.90
3564;DHT22;1796;52.388;13.096;2022-08-05T12:28:32;28.90;99.90
3564;DHT22;1796;52.388;13.096;2022-08-05T12:30:59;29.20;99.90
3564;DHT22;1796;52.388;13.096;2022-08-05T12:33:29;29.50;99.90
3564;DHT22;1796;52.388;13.096;2022-08-05T12:35:56;29.80;99.90
3564;DHT22;1796;52.388;13.096;2022-08-05T12:38:23;29.70;99.90
3564;DHT22;1796;52.388;13.096;2022-08-05T12:40:51;29.80;99.90
3564;DHT22;1796;52.388;13.096;2022-08-05T12:43:18;30.10;99.90
3564;DHT22;1796;52.388;13.096;2022-08-05T12:45:50;30.20;99.90
3564;DHT22;1796;52.388;13.096;2022-08-05T12:48:17;30.30;99.90
3564;DHT22;1796;52.388;13.096;2022-08-05T12:51:10;30.30;99.90
3564;DHT22;1796;52.388;13.096;2022-08-05T12:53:41;30.60;99.90
3564;DHT22;1796;52.388;13.096;2022-08-05T12:56:15;30.60;99.90
3564;DHT22;1796;52.388;13.096;2022-08-05T12:58:43;30.20;99.90
3564;DHT22;1796;52.388;13.096;2022-08-05T13:01:13;30.00;99.90
3564;DHT22;1796;52.388;13.096;2022-08-05T13:03:40;29.60;99.90
3564;DHT22;1796;52.388;13.096;2022-08-05T13:06:07;29.70;99.90
3564;DHT22;1796;52.388;13.096;2022-08-05T13:08:38;29.60;99.90
3564;DHT22;1796;52.388;13.096;2022-08-05T13:11:05;29.40;99.90
3564;DHT22;1796;52.388;13.096;2022-08-05T13:13:32;29.10;99.90
3564;DHT22;1796;52.388;13.096;2022-08-05T13:16:11;28.90;99.90
3564;DHT22;1796;52.388;13.096;2022-08-05T13:18:38;29.00;99.90
3564;DHT22;1796;52.388;13.096;2022-08-05T13:21:05;29.30;99.90
3564;DHT22;1796;52.388;13.096;2022-08-05T13:23:33;29.70;99.90
3564;DHT22;1796;52.388;13.096;2022-08-05T13:26:01;29.50;99.90
3564;DHT22;1796;52.388;13.096;2022-08-05T13:28:30;29.40;99.90
3564;DHT22;1796;52.388;13.096;2022-08-05T13:30:57;29.30;99.90
3564;DHT22;1796;52.388;13.096;2022-08-05T13:33:24;29.60;99.90
3564;DHT22;1796;52.388;13.096;2022-08-05T13:35:51;29.80;99.90
3564;DHT22;1796;52.388;13.096;2022-08-05T13:38:18;29.90;99.90
3564;DHT22;1796;52.388;13.096;2022-08-05T13:40:45;29.90;99.90
3564;DHT22;1796;52.388;13.096;2022-08-05T13:43:14;29.80;99.90
3564;DHT22;1796;52.388;13.096;2022-08-05T13:45:42;30.00;99.90
3564;DHT22;1796;52.388;13.096;2022-08-05T13:48:09;30.20;99.90
3564;DHT22;1796;52.388;13.096;2022-08-05T13:50:36;30.30;99.90
3564;DHT22;1796;52.388;13.096;2022-08-05T13:53:03;30.00;99.90
3564;DHT22;1796;52.388;13.096;2022-08-05T13:55:30;30.20;99.90
3564;DHT22;1796;52.388;13.096;2022-08-05T13:57:56;30.30;99.90
3564;DHT22;1796;52.388;13.096;2022-08-05T14:00:25;30.50;99.90
3564;DHT22;1796;52.388;13.096;2022-08-05T14:02:55;30.20;99.90
3564;DHT22;1796;52.388;13.096;2022-08-05T14:05:22;29.90;99.90
3564;DHT22;1796;52.388;13.096;2022-08-05T14:07:49;29.60;99.90
3564;DHT22;1796;52.388;13.096;2022-08-05T14:10:19;29.70;99.90
3564;DHT22;1796;52.388;13.096;2022-08-05T14:12:47;29.40;99.90
3564;DHT22;1796;52.388;13.096;2022-08-05T14:15:15;29.60;99.90
3564;DHT22;1796;52.388;13.096;2022-08-05T14:17:43;29.80;99.90
3564;DHT22;1796;52.388;13.096;2022-08-05T14:20:11;30.00;99.90
3564;DHT22;1796;52.388;13.096;2022-08-05T14:22:39;30.20;99.90
3564;DHT22;1796;52.388;13.096;2022-08-05T14:25:09;30.10;99.90
3564;DHT22;1796;52.388;13.096;2022-08-05T14:27:36;30.10;99.90
3564;DHT22;1796;52.388;13.096;2022-08-05T14:30:03;30.30;99.90
3564;DHT22;1796;52.388;13.096;2022-08-05T14:32:30;29.90;99.90
3564;DHT22;1796;52.388;13.096;2022-08-05T14:34:59;29.80;99.90
3564;DHT22;1796;52.388;13.096;2022-08-05T14:37:26;29.40;99.90
3564;DHT22;1796;52.388;13.096;2022-08-05T14:39:53;29.30;99.90
3564;DHT22;1796;52.388;13.096;2022-08-05T14:42:20;29.30;99.90
3564;DHT22;1796;52.388;13.096;2022-08-05T14:44:48;29.00;99.90
3564;DHT22;1796;52.388;13.096;2022-08-05T14:47:15;28.50;99.90
3564;DHT22;1796;52.388;13.096;2022-08-05T14:49:41;28.40;99.90
3564;DHT22;1796;52.388;13.096;2022-08-05T14:52:10;28.10;99.90
3564;DHT22;1796;52.388;13.096;2022-08-05T14:54:37;27.80;99.90
3564;DHT22;1796;52.388;13.096;2022-08-05T14:57:04;27.50;99.90
3564;DHT22;1796;52.388;13.096;2022-08-05T14:59:31;27.20;99.90
3564;DHT22;1796;52.388;13.096;2022-08-05T15:01:58;27.10;99.90
3564;DHT22;1796;52.388;13.096;2022-08-05T15:04:26;27.00;99.90
3564;DHT22;1796;52.388;13.096;2022-08-05T15:06:53;26.80;99.90
3564;DHT22;1796;52.388;13.096;2022-08-05T15:09:21;26.70;99.90
3564;DHT22;1796;52.388;13.096;2022-08-05T15:11:48;26.60;99.90
3564;DHT22;1796;52.388;13.096;2022-08-05T15:14:15;26.50;99.90
3564;DHT22;1796;52.388;13.096;2022-08-05T15:16:42;26.40;99.90
3564;DHT22;1796;52.388;13.096;2022-08-05T15:19:09;26.20;99.90
3564;DHT22;1796;52.388;13.096;2022-08-05T15:21:36;26.00;99.90
3564;DHT22;1796;52.388;13.096;2022-08-05T15:24:04;25.80;99.90
3564;DHT22;1796;52.388;13.096;2022-08-05T15:26:33;25.60;99.90
3564;DHT22;1796;52.388;13.096;2022-08-05T15:29:00;25.40;99.90
3564;DHT22;1796;52.388;13.096;2022-08-05T15:31:27;25.20;99.90
3564;DHT22;1796;52.388;13.096;2022-08-05T15:33:54;25.10;99.90
3564;DHT22;1796;52.388;13.096;2022-08-05T15:36:21;25.10;99.90
3564;DHT22;1796;52.388;13.096;2022-08-05T15:38:48;25.00;99.90
3564;DHT22;1796;52.388;13.096;2022-08-05T15:41:15;24.60;99.90
3564;DHT22;1796;52.388;13.096;2022-08-05T15:43:43;24.20;99.90
3564;DHT22;1796;52.388;13.096;2022-08-05T15:46:10;24.10;99.90
3564;DHT22;1796;52.388;13.096;2022-08-05T15:48:37;24.30;99.90
3564;DHT22;1796;52.388;13.096;2022-08-05T15:51:04;24.60;99.90
3564;DHT22;1796;52.388;13.096;2022-08-05T15:53:31;24.70;99.90
3564;DHT22;1796;52.388;13.096;2022-08-05T15:55:58;24.80;99.90
3564;DHT22;1796;52.388;13.096;2022-08-05T15:58:25;24.80;99.90
3564;DHT22;1796;52.388;13.096;2022-08-05T16:00:54;24.70;99.90
3564;DHT22;1796;52.388;13.096;2022-08-05T16:03:21;24.70;99.90